YUL weather

Montreal / Pierre Elliott Trudeau International Airport
Montréal, Quebec, Canada

Public forecast

Using degrees Celsius for public forecast. Weather courtesy of forecast.io.

METAR (pilot weather report)

Retrieved 2017/11/24 12:00 UTC (1 hour ago):

CYUL 241200Z 24010KT 15SM OVC055 02/M03 A2989 RMK SC8 SLP123

TAF (pilot weather forecast)

Retrieved 2017/11/24 12:51 UTC (29 minutes ago):

TAF TAF CYUL 241146Z 2412/2512 23008KT P6SM OVC050 FM241500 21012KT P6SM BKN025 BKN080 TEMPO 2415/2423 BKN020 BECMG 2415/2417 21015G25KT FM242300 22012G22KT P6SM SCT030 BKN090 FM250200 19010KT P6SM SCT160 FM250900 21010G20KT P6SM BKN050 FM251100 21010G20KT 6SM -RA BR OVC030 RMK NXT FCST BY 241500Z